Time;durP1;ratioP1;P1;durP2;ratioP2;P2;SDS_P1;SDS_P2;PMS_P1;PMS_P2;Temp;Humidity;BMP_temperature;BMP_pressure;BME280_temperature;BME280_humidity;BME280_pressure;Samples;Min_cycle;Max_cycle;Signal;HPM_P1;HPM_P2
2024/01/21 00:01:15;;;;;;;17.97;12.50;;;13.00;95.10;;;;;;4594440;19;20440;-73
2024/01/21 00:03:10;;;;;;;19.57;14.70;;;13.00;95.20;;;;;;4592712;19;20434;-73
2024/01/21 00:04:45;;;;;;;36.13;22.40;;;13.00;95.30;;;;;;4594367;19;20581;-73
2024/01/21 00:06:19;;;;;;;67.93;37.53;;;13.00;95.40;;;;;;4592807;19;20449;-73
2024/01/21 00:07:55;;;;;;;140.37;67.93;;;13.00;95.40;;;;;;4594173;19;20007;-73
2024/01/21 00:09:29;;;;;;;171.13;83.87;;;13.00;95.30;;;;;;4594265;19;20449;-73
2024/01/21 00:11:04;;;;;;;230.97;115.03;;;13.00;95.30;;;;;;4593819;19;20022;-73
2024/01/21 00:12:39;;;;;;;153.33;82.13;;;13.00;95.20;;;;;;4594280;19;20006;-73
2024/01/21 00:14:13;;;;;;;106.90;59.20;;;13.00;95.10;;;;;;4593836;19;20015;-73
2024/01/21 00:15:48;;;;;;;92.13;50.67;;;13.00;95.10;;;;;;4593061;19;20013;-73
2024/01/21 00:17:24;;;;;;;61.93;37.00;;;13.00;95.00;;;;;;4593950;19;20365;-73
2024/01/21 00:18:59;;;;;;;49.73;32.60;;;13.00;94.90;;;;;;4593744;19;20506;-73
2024/01/21 00:20:32;;;;;;;39.13;27.97;;;13.00;94.90;;;;;;4594000;19;20076;-73
2024/01/21 00:22:08;;;;;;;37.00;26.23;;;13.00;94.90;;;;;;4593774;19;20006;-74
2024/01/21 00:23:44;;;;;;;34.37;24.00;;;13.00;94.80;;;;;;4593658;19;20397;-73
2024/01/21 00:25:18;;;;;;;33.47;23.33;;;13.00;94.80;;;;;;4593495;19;20432;-73
2024/01/21 00:26:54;;;;;;;35.80;24.40;;;13.00;94.80;;;;;;4593768;19;20398;-73
2024/01/21 00:28:28;;;;;;;28.17;20.07;;;13.00;94.80;;;;;;4592777;19;20002;-73
2024/01/21 00:30:04;;;;;;;21.27;16.77;;;13.00;94.80;;;;;;4593446;19;20002;-73
2024/01/21 00:31:39;;;;;;;20.93;16.87;;;13.10;94.80;;;;;;4593294;19;20298;-73
2024/01/21 00:33:14;;;;;;;19.97;16.10;;;13.10;94.90;;;;;;4594039;19;19999;-73
2024/01/21 00:34:48;;;;;;;21.23;18.13;;;13.10;94.90;;;;;;4593973;19;20015;-73
2024/01/21 00:36:24;;;;;;;20.50;16.77;;;13.10;94.90;;;;;;4591465;19;20011;-73
2024/01/21 00:37:58;;;;;;;20.43;17.10;;;13.10;95.20;;;;;;4593260;19;20002;-73
2024/01/21 00:39:33;;;;;;;22.70;18.70;;;13.10;95.00;;;;;;4591867;19;20305;-73
2024/01/21 00:41:08;;;;;;;22.93;20.17;;;13.10;95.00;;;;;;4593958;19;20014;-73
2024/01/21 00:42:43;;;;;;;24.87;21.63;;;13.10;95.00;;;;;;4592095;19;20032;-73
2024/01/21 00:44:18;;;;;;;23.43;21.00;;;13.10;95.00;;;;;;4593459;19;19998;-73
2024/01/21 00:45:54;;;;;;;21.20;18.37;;;13.10;95.00;;;;;;4593038;19;20010;-73
2024/01/21 00:47:28;;;;;;;21.03;18.77;;;13.10;95.10;;;;;;4593727;19;20003;-73
2024/01/21 00:49:02;;;;;;;23.03;18.17;;;13.10;95.00;;;;;;4593684;19;20002;-73
2024/01/21 00:50:38;;;;;;;20.23;17.70;;;13.00;95.00;;;;;;4593444;19;20023;-73
2024/01/21 00:52:13;;;;;;;22.17;18.57;;;13.00;95.10;;;;;;4592168;19;20018;-73
2024/01/21 00:53:47;;;;;;;26.53;19.90;;;13.00;95.20;;;;;;4593567;19;20006;-73
2024/01/21 00:55:23;;;;;;;26.93;19.23;;;13.00;95.30;;;;;;4593001;19;20022;-73
2024/01/21 00:56:57;;;;;;;22.60;19.23;;;13.00;95.40;;;;;;4593245;19;20396;-73
2024/01/21 00:58:31;;;;;;;21.40;16.87;;;13.00;95.40;;;;;;4593485;19;20003;-73
2024/01/21 01:15:53;;;;;;;21.87;19.57;;;13.10;95.40;;;;;;4592990;19;20425;-75
2024/01/21 01:17:28;;;;;;;22.40;18.53;;;13.10;95.40;;;;;;4592984;19;20002;-72
2024/01/21 01:19:03;;;;;;;21.67;16.77;;;13.10;95.40;;;;;;4592806;19;20058;-72
2024/01/21 01:20:38;;;;;;;23.73;18.77;;;13.10;95.70;;;;;;4592885;19;20011;-72
2024/01/21 01:22:13;;;;;;;23.93;19.33;;;13.10;95.40;;;;;;4593051;19;19998;-74
2024/01/21 01:23:47;;;;;;;28.77;20.23;;;13.10;95.50;;;;;;4592941;19;20006;-74
2024/01/21 01:25:23;;;;;;;24.70;17.83;;;13.10;95.50;;;;;;4591888;19;20006;-74
2024/01/21 01:26:57;;;;;;;20.03;16.50;;;13.10;95.50;;;;;;4592613;19;20031;-74
2024/01/21 01:28:32;;;;;;;21.93;16.37;;;13.10;95.50;;;;;;4592652;19;20005;-74
2024/01/21 01:30:08;;;;;;;24.83;17.33;;;13.10;95.50;;;;;;4592675;19;20027;-74
2024/01/21 01:31:42;;;;;;;20.47;16.57;;;13.10;95.50;;;;;;4590577;19;20005;-75
2024/01/21 01:33:17;;;;;;;24.07;17.80;;;13.10;95.50;;;;;;4592186;19;19995;-74
2024/01/21 01:34:55;;;;;;;20.37;16.40;;;13.10;95.50;;;;;;4590715;19;20046;-74
2024/01/21 01:36:29;;;;;;;25.63;17.70;;;13.10;95.50;;;;;;4592241;19;20037;-74
2024/01/21 01:38:05;;;;;;;23.13;17.10;;;13.10;95.50;;;;;;4592459;19;20003;-74
2024/01/21 01:39:41;;;;;;;21.77;17.63;;;13.10;95.60;;;;;;4592519;19;20003;-74
2024/01/21 01:41:15;;;;;;;29.80;21.13;;;13.10;95.50;;;;;;4592423;19;20441;-75
2024/01/21 01:42:57;;;;;;;27.30;19.70;;;13.10;95.50;;;;;;4592577;19;19994;-75
2024/01/21 01:44:33;;;;;;;26.57;20.37;;;13.10;95.60;;;;;;4590781;19;20006;-74
2024/01/21 01:46:07;;;;;;;29.40;21.33;;;13.00;95.60;;;;;;4592224;19;20089;-74
2024/01/21 01:47:42;;;;;;;26.43;20.37;;;13.00;95.60;;;;;;4592248;19;20007;-74
2024/01/21 01:49:18;;;;;;;25.00;19.03;;;13.00;95.70;;;;;;4590971;19;20007;-75
2024/01/21 01:50:52;;;;;;;24.70;19.67;;;13.00;95.80;;;;;;4591402;19;20011;-74
2024/01/21 01:52:26;;;;;;;26.83;19.80;;;13.00;95.80;;;;;;4592376;19;20006;-74
2024/01/21 01:54:02;;;;;;;22.53;18.60;;;13.00;95.80;;;;;;4591195;19;20460;-74
2024/01/21 01:55:37;;;;;;;27.77;19.17;;;13.00;95.80;;;;;;4590727;19;20003;-74
2024/01/21 01:57:12;;;;;;;26.37;19.63;;;13.10;95.70;;;;;;4592444;19;20435;-74
2024/01/21 01:58:48;;;;;;;27.03;21.17;;;13.10;95.70;;;;;;4592160;19;20010;-73
2024/01/21 02:00:22;;;;;;;25.47;19.77;;;13.10;95.70;;;;;;4590984;19;20981;-74
2024/01/21 02:01:57;;;;;;;28.07;21.17;;;13.10;95.60;;;;;;4590665;19;20003;-74
2024/01/21 02:03:32;;;;;;;20.97;18.77;;;13.10;95.60;;;;;;4591048;19;20006;-74
2024/01/21 02:05:08;;;;;;;26.80;19.77;;;13.10;95.60;;;;;;4590183;19;20074;-74
2024/01/21 02:06:43;;;;;;;26.83;19.10;;;13.10;95.60;;;;;;4591893;19;20003;-75
2024/01/21 02:08:19;;;;;;;31.00;22.10;;;13.10;95.60;;;;;;4590708;19;20005;-74
2024/01/21 02:09:53;;;;;;;34.67;22.63;;;13.10;95.60;;;;;;4590603;19;20006;-74
2024/01/21 02:11:39;;;;;;;33.57;23.07;;;13.10;95.60;;;;;;4590910;19;20426;-74
2024/01/21 02:13:15;;;;;;;36.87;23.13;;;13.10;95.60;;;;;;4589814;19;20017;-74
2024/01/21 02:14:49;;;;;;;29.90;22.00;;;13.10;95.50;;;;;;4590697;19;20018;-74
2024/01/21 02:16:24;;;;;;;30.07;21.13;;;13.10;95.50;;;;;;4591910;19;20002;-74
2024/01/21 02:18:00;;;;;;;24.73;18.37;;;13.10;95.50;;;;;;4592142;19;20006;-74
2024/01/21 02:19:34;;;;;;;27.47;18.40;;;13.10;95.50;;;;;;4590591;19;20007;-74
2024/01/21 02:21:08;;;;;;;26.97;18.73;;;13.10;95.50;;;;;;4591388;19;20299;-74
2024/01/21 02:22:43;;;;;;;23.67;18.90;;;13.10;95.50;;;;;;4592117;19;20431;-74
2024/01/21 02:24:17;;;;;;;26.13;20.03;;;13.10;95.50;;;;;;4591822;19;20017;-74
2024/01/21 02:25:51;;;;;;;26.57;19.27;;;13.10;95.40;;;;;;4591702;19;20322;-74
2024/01/21 02:27:26;;;;;;;25.13;18.87;;;13.10;95.50;;;;;;4591968;19;20010;-74
2024/01/21 02:29:01;;;;;;;23.27;17.67;;;13.10;95.40;;;;;;4591602;19;20003;-74
2024/01/21 02:30:40;;;;;;;23.53;17.67;;;13.10;95.40;;;;;;4591852;19;20002;-74
2024/01/21 02:32:19;;;;;;;24.60;17.93;;;13.10;95.40;;;;;;4589375;19;20003;-74
2024/01/21 02:33:53;;;;;;;24.17;17.23;;;13.10;95.30;;;;;;4591280;19;20066;-75
2024/01/21 02:35:27;;;;;;;23.73;16.47;;;13.10;95.40;;;;;;4590676;19;20007;-74
2024/01/21 02:37:02;;;;;;;23.53;17.60;;;13.10;95.30;;;;;;4591452;19;20036;-74
2024/01/21 02:38:37;;;;;;;23.07;16.97;;;13.10;95.30;;;;;;4591474;19;20433;-74
2024/01/21 02:40:11;;;;;;;24.60;17.00;;;13.10;95.40;;;;;;4591460;19;20002;-74
2024/01/21 02:41:46;;;;;;;24.57;16.23;;;13.10;95.50;;;;;;4590473;19;20494;-74
2024/01/21 02:43:20;;;;;;;23.27;15.60;;;13.10;95.60;;;;;;4591030;19;20086;-74
2024/01/21 02:44:58;;;;;;;24.47;16.03;;;13.00;95.60;;;;;;4590921;19;20508;-75
2024/01/21 02:46:33;;;;;;;23.27;16.50;;;13.00;95.70;;;;;;4590102;19;20019;-74
2024/01/21 02:48:07;;;;;;;25.60;16.30;;;13.10;95.70;;;;;;4591261;19;20014;-75
2024/01/21 02:49:41;;;;;;;24.17;15.73;;;13.10;95.70;;;;;;4591570;19;20101;-74
2024/01/21 02:51:16;;;;;;;21.00;15.20;;;13.10;95.60;;;;;;4590895;19;20094;-74
2024/01/21 02:52:50;;;;;;;22.37;15.93;;;13.10;95.60;;;;;;4591251;19;20008;-75
2024/01/21 02:54:24;;;;;;;22.43;15.67;;;13.10;95.60;;;;;;4591009;19;19998;-74
2024/01/21 02:56:01;;;;;;;21.80;14.97;;;13.10;95.60;;;;;;4591271;19;20284;-74
2024/01/21 02:57:35;;;;;;;18.63;15.33;;;13.10;95.50;;;;;;4591184;19;20003;-75
2024/01/21 02:59:09;;;;;;;20.73;15.90;;;13.10;95.50;;;;;;4591133;19;20002;-74
2024/01/21 03:00:45;;;;;;;20.23;14.57;;;13.10;95.50;;;;;;4591218;19;20086;-74
2024/01/21 03:02:19;;;;;;;21.27;14.57;;;13.10;95.50;;;;;;4593098;19;19998;-75
2024/01/21 03:03:53;;;;;;;20.17;14.50;;;13.20;95.50;;;;;;4595682;19;20022;-74
2024/01/21 03:05:29;;;;;;;21.73;15.33;;;13.10;95.50;;;;;;4594166;19;20010;-74
2024/01/21 03:07:03;;;;;;;21.23;14.83;;;13.20;95.50;;;;;;4595662;19;20005;-74
2024/01/21 03:08:38;;;;;;;21.90;14.97;;;13.10;95.40;;;;;;4595846;19;19998;-74
2024/01/21 03:10:13;;;;;;;20.00;14.37;;;13.20;95.50;;;;;;4595666;19;20006;-74
2024/01/21 03:11:48;;;;;;;23.37;15.10;;;13.20;95.40;;;;;;4593134;19;20076;-74
2024/01/21 03:13:21;;;;;;;25.10;15.83;;;13.10;95.40;;;;;;4595161;19;20026;-75
2024/01/21 03:14:57;;;;;;;21.83;14.00;;;13.20;95.40;;;;;;4594729;19;20026;-74
2024/01/21 03:16:30;;;;;;;22.83;15.27;;;13.20;95.40;;;;;;4595449;19;20423;-75
2024/01/21 03:18:05;;;;;;;19.57;13.77;;;13.20;95.40;;;;;;4595364;19;20004;-74
2024/01/21 03:19:40;;;;;;;23.60;15.80;;;13.20;95.40;;;;;;4595690;19;20023;-74
2024/01/21 03:21:14;;;;;;;23.60;16.10;;;13.20;95.30;;;;;;4595313;19;20009;-74
2024/01/21 03:22:48;;;;;;;24.33;16.57;;;13.20;95.30;;;;;;4593994;19;20006;-75
2024/01/21 03:24:23;;;;;;;24.10;16.67;;;13.20;95.30;;;;;;4595142;19;20045;-74
2024/01/21 03:25:57;;;;;;;22.30;16.33;;;13.10;95.30;;;;;;4595484;19;20002;-74
2024/01/21 03:27:32;;;;;;;23.77;15.93;;;13.20;95.30;;;;;;4595226;19;20011;-74
2024/01/21 03:29:08;;;;;;;25.90;16.23;;;13.20;95.30;;;;;;4595229;19;20082;-74
2024/01/21 03:30:42;;;;;;;25.80;15.63;;;13.20;95.30;;;;;;4595352;19;20388;-75
2024/01/21 03:32:16;;;;;;;23.13;16.20;;;13.20;95.20;;;;;;4593606;19;20092;-74
2024/01/21 03:33:51;;;;;;;24.33;16.23;;;13.20;95.20;;;;;;4595153;19;20029;-74
2024/01/21 03:35:25;;;;;;;25.93;15.97;;;13.20;95.10;;;;;;4593746;19;20516;-74
2024/01/21 03:36:59;;;;;;;24.80;16.67;;;13.20;95.10;;;;;;4595243;19;19994;-74
2024/01/21 03:38:36;;;;;;;24.23;15.40;;;13.20;95.10;;;;;;4594938;19;20295;-74
2024/01/21 03:40:10;;;;;;;21.73;16.47;;;13.10;95.10;;;;;;4595178;19;20322;-74
2024/01/21 03:41:45;;;;;;;20.43;14.97;;;13.10;95.20;;;;;;4594912;19;20015;-74
2024/01/21 03:43:21;;;;;;;21.37;15.03;;;13.10;95.20;;;;;;4594902;19;20010;-74
2024/01/21 03:44:55;;;;;;;22.87;15.07;;;13.10;95.30;;;;;;4594035;19;20002;-73
2024/01/21 03:46:29;;;;;;;22.57;14.23;;;13.10;95.30;;;;;;4595042;19;20020;-73
2024/01/21 03:48:04;;;;;;;21.50;14.53;;;13.10;95.40;;;;;;4595233;19;20030;-74
2024/01/21 03:49:38;;;;;;;21.00;14.17;;;13.10;95.40;;;;;;4594749;19;20062;-74
2024/01/21 03:51:12;;;;;;;19.87;13.90;;;13.10;95.30;;;;;;4593221;19;20002;-74
2024/01/21 03:52:49;;;;;;;19.90;14.20;;;13.10;95.30;;;;;;4594362;19;20013;-74
2024/01/21 03:54:23;;;;;;;20.73;14.50;;;13.10;95.20;;;;;;4594348;19;20019;-74
2024/01/21 03:55:57;;;;;;;20.97;15.47;;;13.10;95.20;;;;;;4594802;19;19999;-74
2024/01/21 03:57:32;;;;;;;20.47;14.97;;;13.10;95.10;;;;;;4593565;19;20458;-74
2024/01/21 03:59:06;;;;;;;22.60;14.40;;;13.10;95.10;;;;;;4594382;19;20010;-74
2024/01/21 04:00:40;;;;;;;20.60;14.53;;;13.10;95.10;;;;;;4594468;19;20304;-74
2024/01/21 04:02:15;;;;;;;20.23;13.20;;;13.10;95.10;;;;;;4593562;19;20120;-74
2024/01/21 04:03:49;;;;;;;20.97;14.47;;;13.10;95.00;;;;;;4594059;19;20010;-74
2024/01/21 04:05:25;;;;;;;18.53;12.73;;;13.10;95.00;;;;;;4593196;19;20033;-74
2024/01/21 04:07:00;;;;;;;17.40;12.50;;;13.10;95.00;;;;;;4594701;19;20003;-74
2024/01/21 04:08:35;;;;;;;21.37;13.27;;;13.10;94.90;;;;;;4594351;19;20346;-74
2024/01/21 04:10:10;;;;;;;24.50;14.57;;;13.10;94.90;;;;;;4594290;19;20410;-74
2024/01/21 04:11:45;;;;;;;19.20;13.40;;;13.10;94.90;;;;;;4593438;19;20010;-74
2024/01/21 04:13:19;;;;;;;20.47;14.47;;;13.10;94.90;;;;;;4594080;19;20014;-74
2024/01/21 04:14:53;;;;;;;20.90;13.03;;;13.10;94.90;;;;;;4593269;19;20014;-74
2024/01/21 04:16:28;;;;;;;18.57;13.07;;;13.10;94.80;;;;;;4594214;19;20315;-74
2024/01/21 04:18:02;;;;;;;16.63;11.93;;;13.10;94.80;;;;;;4592776;19;20002;-74
2024/01/21 04:19:36;;;;;;;18.33;12.83;;;13.10;94.70;;;;;;4593007;19;20006;-74
2024/01/21 04:21:13;;;;;;;19.97;13.73;;;13.10;94.70;;;;;;4593770;19;20006;-73
2024/01/21 04:22:51;;;;;;;20.20;12.63;;;13.20;94.70;;;;;;4594244;19;20326;-74
2024/01/21 04:24:25;;;;;;;15.90;11.73;;;13.20;94.70;;;;;;4593646;19;20002;-74
2024/01/21 04:26:00;;;;;;;17.57;12.20;;;13.20;94.60;;;;;;4593989;19;20013;-74
2024/01/21 04:27:34;;;;;;;16.83;11.90;;;13.20;94.60;;;;;;4593857;19;20435;-74
2024/01/21 04:29:08;;;;;;;18.57;12.27;;;13.10;94.60;;;;;;4593791;19;20401;-74
2024/01/21 04:30:43;;;;;;;17.33;12.00;;;13.10;94.60;;;;;;4593857;19;20014;-74
2024/01/21 04:32:18;;;;;;;18.20;12.30;;;13.10;94.60;;;;;;4592561;19;20004;-74
2024/01/21 04:33:53;;;;;;;19.27;13.47;;;13.20;94.60;;;;;;4592570;19;20014;-74
2024/01/21 04:35:28;;;;;;;16.30;11.20;;;13.20;94.50;;;;;;4592254;19;19999;-74
2024/01/21 04:37:02;;;;;;;15.60;11.07;;;13.10;94.50;;;;;;4593699;19;20110;-74
2024/01/21 04:38:37;;;;;;;17.93;12.07;;;13.10;94.40;;;;;;4593664;19;20392;-74
2024/01/21 04:40:13;;;;;;;16.10;12.03;;;13.20;94.40;;;;;;4592606;19;20017;-74
2024/01/21 04:41:47;;;;;;;18.23;13.50;;;13.10;94.40;;;;;;4593266;19;20337;-74
2024/01/21 04:43:21;;;;;;;18.03;12.53;;;13.20;94.40;;;;;;4593539;19;20319;-74
2024/01/21 04:44:56;;;;;;;15.17;12.37;;;13.10;94.40;;;;;;4593149;19;20021;-74
2024/01/21 04:46:31;;;;;;;17.77;12.37;;;13.20;94.40;;;;;;4593733;19;20717;-74
2024/01/21 04:48:06;;;;;;;15.43;11.37;;;13.20;94.40;;;;;;4593531;19;19998;-74
2024/01/21 04:49:41;;;;;;;18.77;12.47;;;13.20;94.40;;;;;;4593536;19;20319;-74
2024/01/21 04:51:15;;;;;;;17.40;12.03;;;13.20;94.50;;;;;;4593423;19;20002;-72
2024/01/21 04:52:49;;;;;;;17.90;11.50;;;13.30;94.20;;;;;;4593359;19;20322;-74
2024/01/21 04:54:24;;;;;;;18.40;12.90;;;13.40;94.10;;;;;;4593159;19;20003;-74
2024/01/21 04:55:58;;;;;;;17.97;12.47;;;13.40;94.10;;;;;;4593328;19;19999;-74
2024/01/21 04:57:32;;;;;;;15.77;11.87;;;13.40;94.20;;;;;;4593541;19;20062;-74
2024/01/21 04:59:09;;;;;;;17.30;12.10;;;13.40;94.10;;;;;;4593298;19;20014;-74
2024/01/21 05:00:44;;;;;;;17.27;12.10;;;13.50;94.10;;;;;;4591950;19;20323;-74
2024/01/21 05:02:21;;;;;;;16.57;11.57;;;13.50;94.10;;;;;;4593131;19;20425;-74
2024/01/21 05:03:56;;;;;;;17.87;12.57;;;13.60;94.10;;;;;;4593216;19;20006;-75
2024/01/21 05:05:30;;;;;;;16.30;12.30;;;13.60;94.00;;;;;;4592312;19;20009;-75
2024/01/21 05:07:04;;;;;;;17.13;12.43;;;13.80;94.00;;;;;;4593367;19;20002;-74
2024/01/21 05:08:45;;;;;;;18.27;12.37;;;13.80;93.80;;;;;;4591987;19;20069;-74
2024/01/21 05:10:19;;;;;;;16.53;12.10;;;14.00;93.70;;;;;;4593024;19;19999;-74
2024/01/21 05:11:53;;;;;;;17.70;12.00;;;14.00;93.60;;;;;;4592488;19;19998;-74
2024/01/21 05:13:28;;;;;;;16.83;12.93;;;14.10;93.40;;;;;;4592993;19;20003;-74
2024/01/21 05:15:03;;;;;;;17.73;11.57;;;14.10;93.30;;;;;;4591872;19;20039;-74
2024/01/21 05:16:40;;;;;;;17.63;12.57;;;14.20;93.20;;;;;;4592882;19;20438;-74
2024/01/21 05:18:15;;;;;;;15.93;11.67;;;14.20;93.10;;;;;;4593200;19;20308;-74
2024/01/21 05:19:49;;;;;;;18.70;12.10;;;14.20;93.10;;;;;;4592844;19;20002;-74
2024/01/21 05:21:23;;;;;;;16.37;12.17;;;14.20;93.00;;;;;;4593079;19;20381;-74
2024/01/21 05:22:59;;;;;;;20.57;12.63;;;14.20;93.00;;;;;;4593127;19;20040;-74
2024/01/21 05:24:36;;;;;;;18.70;12.60;;;14.20;92.90;;;;;;4591124;19;20342;-74
2024/01/21 05:26:09;;;;;;;19.77;12.80;;;14.20;92.90;;;;;;4591518;19;20006;-74
2024/01/21 05:27:45;;;;;;;24.13;15.97;;;14.20;92.90;;;;;;4592386;19;20006;-72
2024/01/21 05:29:19;;;;;;;38.83;28.90;;;14.10;92.90;;;;;;4592633;19;19999;-72
2024/01/21 05:30:53;;;;;;;56.60;45.70;;;14.10;92.90;;;;;;4592927;19;19995;-72
2024/01/21 05:32:29;;;;;;;69.70;53.83;;;14.10;92.90;;;;;;4590220;19;20026;-72
2024/01/21 05:34:05;;;;;;;110.27;98.30;;;14.10;92.90;;;;;;4592175;19;20100;-72
2024/01/21 05:35:39;;;;;;;54.03;44.53;;;14.10;92.90;;;;;;4591749;19;20032;-74
2024/01/21 05:37:16;;;;;;;39.43;31.67;;;14.10;92.90;;;;;;4592587;19;20006;-74
2024/01/21 05:38:49;;;;;;;27.97;22.20;;;14.10;92.90;;;;;;4592420;19;20044;-74
2024/01/21 05:40:23;;;;;;;20.63;14.70;;;14.00;92.90;;;;;;4591377;19;20002;-74
2024/01/21 05:42:06;;;;;;;19.93;12.90;;;14.00;92.90;;;;;;4592159;19;20019;-74
2024/01/21 05:43:40;;;;;;;18.50;13.23;;;14.00;93.00;;;;;;4591157;19;20003;-74
2024/01/21 05:45:14;;;;;;;20.27;14.23;;;14.00;93.00;;;;;;4591527;19;20002;-74
2024/01/21 05:46:49;;;;;;;16.23;11.70;;;14.00;93.00;;;;;;4592682;19;20003;-74
2024/01/21 05:48:23;;;;;;;20.50;13.97;;;13.90;93.00;;;;;;4592377;19;19995;-74
2024/01/21 05:49:57;;;;;;;20.60;13.50;;;13.90;93.00;;;;;;4592552;19;20073;-74
2024/01/21 05:51:33;;;;;;;25.77;15.87;;;13.80;93.00;;;;;;4591935;19;20007;-74
2024/01/21 05:53:07;;;;;;;20.27;13.47;;;13.80;93.00;;;;;;4592234;19;20310;-74
2024/01/21 05:54:41;;;;;;;19.83;13.03;;;13.80;93.00;;;;;;4591747;19;20410;-74
2024/01/21 05:56:19;;;;;;;18.70;13.40;;;13.80;93.10;;;;;;4592229;19;20305;-74
2024/01/21 05:57:53;;;;;;;18.43;12.40;;;13.80;93.20;;;;;;4590853;19;20021;-74
2024/01/21 05:59:27;;;;;;;18.37;12.17;;;13.70;93.20;;;;;;4592047;19;20482;-74
2024/01/21 06:01:03;;;;;;;15.93;12.43;;;13.70;93.10;;;;;;4592206;19;19999;-74
2024/01/21 06:02:37;;;;;;;17.30;12.40;;;13.60;93.10;;;;;;4592253;19;20445;-74
2024/01/21 06:04:11;;;;;;;17.50;11.57;;;13.60;93.10;;;;;;4592303;19;20007;-74
2024/01/21 06:05:46;;;;;;;16.40;11.97;;;13.60;93.10;;;;;;4590686;19;20002;-74
2024/01/21 06:07:22;;;;;;;20.03;12.27;;;13.60;93.10;;;;;;4590727;19;20002;-73
2024/01/21 06:08:55;;;;;;;16.47;12.07;;;13.50;93.20;;;;;;4591768;19;19994;-72
2024/01/21 06:10:31;;;;;;;17.20;12.43;;;13.50;93.20;;;;;;4592308;19;20010;-74
2024/01/21 06:12:05;;;;;;;16.07;12.37;;;13.50;93.20;;;;;;4591361;19;20311;-72
2024/01/21 06:13:39;;;;;;;18.73;12.07;;;13.50;93.20;;;;;;4592212;19;20007;-72
2024/01/21 06:15:14;;;;;;;15.23;12.17;;;13.40;93.20;;;;;;4590794;19;20018;-73
2024/01/21 06:16:48;;;;;;;16.10;11.07;;;13.40;93.20;;;;;;4592101;19;20002;-72
2024/01/21 06:18:23;;;;;;;16.90;12.57;;;13.40;93.30;;;;;;4591834;19;20462;-77
2024/01/21 06:19:59;;;;;;;16.73;11.73;;;13.40;93.30;;;;;;4592092;19;20006;-74
2024/01/21 06:21:33;;;;;;;19.07;13.50;;;13.30;93.30;;;;;;4591985;19;20003;-74
2024/01/21 06:23:07;;;;;;;17.30;12.63;;;13.40;93.30;;;;;;4592062;19;20358;-74
2024/01/21 06:24:42;;;;;;;20.63;13.63;;;13.30;93.30;;;;;;4590012;19;20083;-74
2024/01/21 06:26:19;;;;;;;20.20;12.57;;;13.30;93.30;;;;;;4591406;19;20390;-72
2024/01/21 06:27:53;;;;;;;19.47;13.50;;;13.30;93.30;;;;;;4590432;19;20013;-74
2024/01/21 06:29:28;;;;;;;20.20;13.37;;;13.30;93.30;;;;;;4591659;19;20022;-74
2024/01/21 06:31:02;;;;;;;20.00;13.80;;;13.20;93.50;;;;;;4591864;19;19999;-74
2024/01/21 06:32:36;;;;;;;24.10;14.53;;;13.20;93.30;;;;;;4591555;19;20016;-74
2024/01/21 06:34:12;;;;;;;25.33;17.00;;;13.20;93.30;;;;;;4591488;19;20016;-74
2024/01/21 06:35:46;;;;;;;26.00;16.47;;;13.20;93.40;;;;;;4591812;19;20020;-74
2024/01/21 06:37:20;;;;;;;26.00;16.07;;;13.20;93.40;;;;;;4593571;19;20003;-74
2024/01/21 06:38:56;;;;;;;20.30;14.97;;;13.20;93.40;;;;;;4596174;19;20024;-74
2024/01/21 06:40:31;;;;;;;20.30;13.67;;;13.20;93.40;;;;;;4596286;19;20017;-74
2024/01/21 06:42:05;;;;;;;18.40;13.10;;;13.20;93.50;;;;;;4596331;19;20026;-74
2024/01/21 06:43:41;;;;;;;22.50;13.97;;;13.20;93.40;;;;;;4596324;19;20435;-74
2024/01/21 06:45:15;;;;;;;18.37;13.97;;;13.20;93.40;;;;;;4594993;19;20003;-74
2024/01/21 06:46:50;;;;;;;18.80;13.07;;;13.10;93.40;;;;;;4595935;19;20483;-81
2024/01/21 06:48:26;;;;;;;18.63;13.80;;;13.20;93.40;;;;;;4596026;19;20003;-81
2024/01/21 06:50:00;;;;;;;20.10;13.67;;;13.10;93.40;;;;;;4595851;19;19998;-80
2024/01/21 06:53:44;;;;;;;20.70;13.93;;;13.10;93.50;;;;;;4593536;19;20014;-83
2024/01/21 06:55:18;;;;;;;19.80;14.80;;;13.10;93.40;;;;;;4592080;19;20418;-76
2024/01/21 06:56:53;;;;;;;22.50;14.47;;;13.20;93.40;;;;;;4593431;19;20038;-76
2024/01/21 06:58:29;;;;;;;21.63;16.13;;;13.20;93.50;;;;;;4593533;19;20010;-76
2024/01/21 07:00:05;;;;;;;20.80;15.63;;;13.30;93.40;;;;;;4593635;19;20096;-76
2024/01/21 07:01:39;;;;;;;22.73;16.87;;;13.40;93.30;;;;;;4593598;19;20007;-76
2024/01/21 07:03:14;;;;;;;18.70;15.57;;;13.50;93.50;;;;;;4593272;19;20021;-76
2024/01/21 07:04:48;;;;;;;17.90;14.10;;;12.80;95.50;;;;;;4592347;19;20038;-77
2024/01/21 07:06:22;;;;;;;18.03;14.67;;;12.30;97.00;;;;;;4593258;19;20006;-77
2024/01/21 07:07:58;;;;;;;21.70;16.10;;;11.70;96.60;;;;;;4593169;19;20385;-78
2024/01/21 07:09:34;;;;;;;20.60;15.93;;;11.30;97.50;;;;;;4593365;19;20408;-79
2024/01/21 07:11:08;;;;;;;19.63;15.70;;;11.00;97.80;;;;;;4593188;19;20439;-76
2024/01/21 07:12:44;;;;;;;20.63;15.63;;;10.70;98.50;;;;;;4593393;19;20424;-76
2024/01/21 07:14:17;;;;;;;20.70;16.23;;;10.50;98.80;;;;;;4593125;19;20728;-76
2024/01/21 07:15:51;;;;;;;18.90;14.70;;;10.30;99.30;;;;;;4593276;19;20451;-76
2024/01/21 07:17:26;;;;;;;22.53;15.93;;;10.10;99.40;;;;;;4593427;19;20413;-76
2024/01/21 07:19:01;;;;;;;19.43;14.90;;;10.00;99.80;;;;;;4593280;19;20486;-76
2024/01/21 07:20:34;;;;;;;20.10;15.70;;;9.90;99.90;;;;;;4592984;19;20433;-76
2024/01/21 07:22:13;;;;;;;20.33;15.57;;;9.80;99.90;;;;;;4592841;19;20420;-76
2024/01/21 07:23:47;;;;;;;21.53;15.77;;;9.80;99.90;;;;;;4592802;19;20417;-76
2024/01/21 07:25:21;;;;;;;21.47;15.07;;;9.60;99.90;;;;;;4591462;19;20445;-76
2024/01/21 07:26:56;;;;;;;18.50;15.13;;;9.60;99.90;;;;;;4592751;19;20424;-75
2024/01/21 07:28:30;;;;;;;20.87;16.20;;;9.50;99.90;;;;;;4594318;19;20441;-76
2024/01/21 07:30:04;;;;;;;22.47;16.37;;;9.40;99.90;;;;;;4595043;19;20484;-76
2024/01/21 07:31:41;;;;;;;25.80;18.43;;;9.40;99.90;;;;;;4594652;19;20389;-76
2024/01/21 07:33:16;;;;;;;24.73;17.57;;;9.40;99.90;;;;;;4595183;19;20496;-75
2024/01/21 07:34:50;;;;;;;22.30;16.10;;;9.30;99.90;;;;;;4594149;19;20450;-76
2024/01/21 07:36:25;;;;;;;22.00;16.70;;;9.30;99.90;;;;;;4594836;19;20401;-76
2024/01/21 07:38:00;;;;;;;21.97;15.77;;;9.20;99.90;;;;;;4594799;19;20423;-76
2024/01/21 07:39:34;;;;;;;22.37;15.80;;;9.20;99.90;;;;;;4594817;19;20393;-76
2024/01/21 07:41:09;;;;;;;20.07;15.63;;;9.20;99.90;;;;;;4594825;19;20479;-76
2024/01/21 07:42:43;;;;;;;21.53;16.50;;;9.10;99.90;;;;;;4593351;19;21076;-78
2024/01/21 07:44:17;;;;;;;21.03;15.77;;;9.00;99.90;;;;;;4594226;19;20397;-75
2024/01/21 07:45:52;;;;;;;26.47;18.87;;;9.00;99.90;;;;;;4594638;19;20519;-76
2024/01/21 07:47:26;;;;;;;24.20;18.30;;;9.00;99.90;;;;;;4594559;19;20861;-76
2024/01/21 07:49:00;;;;;;;20.93;16.07;;;8.90;99.90;;;;;;4594224;19;20449;-76
2024/01/21 07:50:36;;;;;;;20.63;16.17;;;9.00;99.90;;;;;;4594607;19;20393;-76
2024/01/21 07:52:10;;;;;;;22.23;17.43;;;8.90;99.90;;;;;;4593390;19;20511;-76
2024/01/21 07:53:44;;;;;;;23.53;17.17;;;8.80;99.90;;;;;;4594493;19;20496;-76
2024/01/21 07:55:20;;;;;;;23.03;17.43;;;8.80;99.90;;;;;;4593221;19;20421;-76
2024/01/21 07:56:54;;;;;;;20.37;16.20;;;8.80;99.90;;;;;;4594331;19;20409;-76
2024/01/21 07:58:28;;;;;;;24.60;18.53;;;8.90;99.90;;;;;;4594391;19;20413;-76
2024/01/21 08:00:04;;;;;;;23.00;17.23;;;8.90;99.90;;;;;;4594385;19;20642;-76
2024/01/21 08:01:38;;;;;;;22.30;16.97;;;8.80;99.90;;;;;;4593225;19;20465;-76
2024/01/21 08:03:12;;;;;;;21.73;15.93;;;8.80;99.90;;;;;;4593930;19;20734;-76
2024/01/21 08:04:50;;;;;;;22.33;15.63;;;8.80;99.90;;;;;;4593565;19;20447;-76
2024/01/21 08:06:24;;;;;;;21.97;16.53;;;8.70;99.90;;;;;;4594240;19;20401;-77
2024/01/21 08:07:58;;;;;;;20.73;16.27;;;8.70;99.90;;;;;;4594222;19;20946;-76
2024/01/21 08:09:33;;;;;;;23.53;18.27;;;8.70;99.90;;;;;;4594697;19;20682;-75
2024/01/21 08:11:07;;;;;;;24.50;16.37;;;8.70;99.90;;;;;;4594204;19;20480;-75
2024/01/21 08:12:41;;;;;;;26.67;18.10;;;8.70;99.90;;;;;;4592642;19;20448;-76
2024/01/21 08:14:18;;;;;;;31.63;18.33;;;8.70;99.90;;;;;;4593862;19;20374;-75
2024/01/21 08:15:52;;;;;;;28.23;17.90;;;8.80;99.90;;;;;;4594301;19;20451;-75
2024/01/21 08:17:26;;;;;;;25.00;16.50;;;9.00;99.90;;;;;;4594060;19;20405;-76
2024/01/21 08:19:03;;;;;;;25.30;17.60;;;9.20;99.90;;;;;;4594012;19;20924;-81
2024/01/21 08:20:37;;;;;;;29.63;19.40;;;9.50;99.90;;;;;;4594468;19;20392;-80